Time;durP1;ratioP1;P1;durP2;ratioP2;P2;SDS_P1;SDS_P2;PMS_P1;PMS_P2;Temp;Humidity;BMP_temperature;BMP_pressure;BME280_temperature;BME280_humidity;BME280_pressure;Samples;Min_cycle;Max_cycle;Signal;HPM_P1;HPM_P2
2023/04/10 00:01:52;;;;;;;13.35;9.65;;;;;;;10.85;95.51;100851.06;1749670;82;21042;-56
2023/04/10 00:04:23;;;;;;;15.00;9.25;;;;;;;10.80;95.44;100845.62;1749587;82;21450;-57
2023/04/10 00:06:52;;;;;;;11.95;8.78;;;;;;;10.76;95.50;100847.55;1749343;80;21054;-58
2023/04/10 00:09:22;;;;;;;13.50;9.33;;;;;;;10.74;95.51;100844.16;1749682;82;21046;-58
2023/04/10 00:11:52;;;;;;;13.60;9.13;;;;;;;10.73;95.53;100846.56;1749661;81;21442;-58
2023/04/10 00:14:22;;;;;;;13.78;9.55;;;;;;;10.70;95.63;100846.94;1721003;82;21062;-57
2023/04/10 00:16:54;;;;;;;16.17;10.28;;;;;;;10.71;95.76;100852.75;1749417;80;21078;-57
2023/04/10 00:19:23;;;;;;;14.98;10.35;;;;;;;10.71;95.58;100847.27;1749488;82;21063;-59
2023/04/10 00:21:52;;;;;;;15.63;10.23;;;;;;;10.69;95.65;100847.98;1749713;82;21058;-57
2023/04/10 00:24:23;;;;;;;15.48;10.53;;;;;;;10.68;95.66;100840.80;1749474;81;21058;-58
2023/04/10 00:26:55;;;;;;;15.65;10.15;;;;;;;10.68;95.70;100840.80;1749452;80;21075;-57
2023/04/10 00:29:25;;;;;;;14.13;9.58;;;;;;;10.68;95.72;100841.64;1749554;80;21024;-58
2023/04/10 00:31:57;;;;;;;15.83;9.40;;;;;;;10.67;95.69;100844.57;1749568;82;21114;-59
2023/04/10 00:34:26;;;;;;;16.73;10.25;;;;;;;10.65;95.70;100842.02;1749662;80;21003;-58
2023/04/10 00:36:55;;;;;;;16.97;10.48;;;;;;;10.65;95.76;100835.69;1749755;82;21062;-59
2023/04/10 00:39:25;;;;;;;14.15;9.78;;;;;;;10.63;95.84;100835.88;1749562;82;21034;-59
2023/04/10 00:41:57;;;;;;;17.35;9.45;;;;;;;10.60;95.83;100840.36;1749384;82;21034;-58
2023/04/10 00:44:27;;;;;;;15.68;9.83;;;;;;;10.60;96.03;100840.87;1749316;81;21717;-57
2023/04/10 00:46:56;;;;;;;14.78;9.53;;;;;;;10.59;96.04;100837.80;1749195;82;21086;-58
2023/04/10 00:49:26;;;;;;;15.63;9.68;;;;;;;10.60;96.15;100841.73;1748960;81;21015;-58
2023/04/10 00:51:55;;;;;;;15.60;9.73;;;;;;;10.63;96.10;100839.98;1746834;82;21102;-59
2023/04/10 00:54:28;;;;;;;14.30;9.90;;;;;;;10.64;96.18;100836.20;1717045;82;21075;-60
2023/04/10 00:56:57;;;;;;;17.27;10.45;;;;;;;10.63;95.97;100839.98;1746841;82;21454;-58
2023/04/10 00:59:27;;;;;;;13.18;9.38;;;;;;;10.59;95.99;100846.87;1746678;82;21031;-57
2023/04/10 01:01:56;;;;;;;15.48;9.78;;;;;;;10.56;96.07;100835.44;1746647;82;21044;-58
2023/04/10 01:04:27;;;;;;;14.80;10.40;;;;;;;10.55;96.15;100838.70;1746467;81;21470;-60
2023/04/10 01:07:18;;;;;;;14.30;9.73;;;;;;;10.53;96.26;100841.30;1716480;82;21482;-57
2023/04/10 01:10:10;;;;;;;15.43;10.25;;;;;;;10.51;96.37;100840.11;1746866;82;21082;-60
2023/04/10 01:13:20;;;;;;;15.70;9.98;;;;;;;10.47;96.43;100831.94;1700829;82;21095;-59
2023/04/10 01:16:17;;;;;;;13.43;9.90;;;;;;;10.44;96.61;100840.53;1746706;82;21082;-58
2023/04/10 01:19:13;;;;;;;19.70;11.08;;;;;;;10.42;96.77;100839.86;1746719;82;21486;-59
2023/04/10 01:21:45;;;;;;;16.12;10.75;;;;;;;10.42;97.00;100830.27;1746642;82;21728;-57
2023/04/10 01:24:36;;;;;;;19.32;11.40;;;;;;;10.44;97.00;100824.94;1747067;82;21047;-58
2023/04/10 01:27:33;;;;;;;18.37;10.75;;;;;;;10.42;96.78;100831.13;1746563;82;21454;-57
2023/04/10 01:30:05;;;;;;;18.37;10.50;;;;;;;10.37;96.86;100830.80;1746305;82;21034;-60
2023/04/10 01:32:36;;;;;;;17.27;10.72;;;;;;;10.34;97.09;100835.28;1746276;82;21007;-58
2023/04/10 01:35:06;;;;;;;15.65;10.70;;;;;;;10.29;97.19;100834.98;1746545;82;21114;-58
2023/04/10 01:37:42;;;;;;;16.67;10.32;;;;;;;10.29;97.39;100832.77;1715984;82;21082;-58
2023/04/10 01:40:14;;;;;;;16.25;10.05;;;;;;;10.28;97.46;100829.69;1746474;82;21042;-57
2023/04/10 01:42:55;;;;;;;14.28;9.70;;;;;;;10.28;97.61;100834.65;1746513;82;21051;-58
2023/04/10 01:45:27;;;;;;;17.75;10.20;;;;;;;10.30;97.85;100833.95;1746117;82;21027;-58
2023/04/10 01:47:56;;;;;;;14.30;9.90;;;;;;;10.30;97.84;100835.84;1746721;82;21086;-57
2023/04/10 01:50:27;;;;;;;16.27;10.03;;;;;;;10.30;98.02;100830.36;1746568;81;21474;-59
2023/04/10 01:52:56;;;;;;;15.75;9.73;;;;;;;10.31;98.05;100830.69;1746792;82;21035;-60
2023/04/10 01:55:27;;;;;;;15.15;9.58;;;;;;;10.33;98.11;100834.09;1747071;81;21066;-58
2023/04/10 01:58:00;;;;;;;16.20;10.03;;;;;;;10.33;98.12;100841.80;1746074;82;21556;-58
2023/04/10 02:00:40;;;;;;;16.93;10.68;;;;;;;10.31;98.17;100843.02;1693372;82;21018;-60
2023/04/10 02:03:11;;;;;;;16.82;11.03;;;;;;;10.30;98.30;100835.84;1719158;82;21111;-57
2023/04/10 02:06:16;;;;;;;19.95;10.90;;;;;;;10.30;98.49;100836.69;1746838;82;21078;-58
2023/04/10 02:08:54;;;;;;;17.57;11.48;;;;;;;10.32;98.70;100836.50;1746593;82;21011;-59
2023/04/10 02:11:57;;;;;;;19.05;12.37;;;;;;;10.34;98.87;100838.53;1742372;82;21046;-58
2023/04/10 02:14:30;;;;;;;20.65;12.70;;;;;;;10.32;99.01;100838.72;1746660;82;21074;-58
2023/04/10 02:17:00;;;;;;;17.73;12.10;;;;;;;10.31;99.20;100841.65;1746749;82;21074;-58
2023/04/10 02:19:31;;;;;;;19.45;12.00;;;;;;;10.31;99.29;100834.28;1746967;81;21454;-58
2023/04/10 02:22:03;;;;;;;18.17;11.73;;;;;;;10.31;99.44;100833.43;1746820;82;21501;-59
2023/04/10 02:24:33;;;;;;;20.43;12.50;;;;;;;10.32;99.55;100840.09;1716853;82;21098;-57
2023/04/10 02:27:03;;;;;;;21.25;12.85;;;;;;;10.30;99.65;100842.16;1748566;81;21038;-58
2023/04/10 02:29:34;;;;;;;20.80;13.00;;;;;;;10.29;99.77;100845.09;1749629;82;21031;-58
2023/04/10 02:32:04;;;;;;;23.62;13.40;;;;;;;10.29;99.98;100836.87;1749962;81;21078;-58
2023/04/10 02:34:34;;;;;;;20.90;12.60;;;;;;;10.31;99.98;100848.49;1748059;82;21086;-59
2023/04/10 02:37:04;;;;;;;26.15;13.98;;;;;;;10.30;100.00;100841.31;1747098;82;21093;-58
2023/04/10 02:39:33;;;;;;;24.90;13.88;;;;;;;10.27;99.98;100851.27;1746879;82;21662;-57
2023/04/10 02:42:03;;;;;;;22.67;13.00;;;;;;;10.26;100.00;100849.05;1746606;81;21035;-58
2023/04/10 02:44:33;;;;;;;23.83;12.80;;;;;;;10.24;100.00;100844.80;1746699;82;21046;-58
2023/04/10 02:47:02;;;;;;;27.80;14.28;;;;;;;10.22;100.00;100850.97;1746818;82;21027;-58
2023/04/10 02:49:33;;;;;;;21.42;12.78;;;;;;;10.23;100.00;100845.83;1746296;82;22009;-57
2023/04/10 02:52:05;;;;;;;24.75;13.40;;;;;;;10.22;100.00;100849.60;1745582;82;21031;-59
2023/04/10 02:54:38;;;;;;;24.12;13.53;;;;;;;10.22;100.00;100852.34;1746426;82;21055;-58
2023/04/10 02:57:08;;;;;;;28.95;13.95;;;;;;;10.23;100.00;100849.94;1715453;82;21090;-59
2023/04/10 02:59:38;;;;;;;23.87;14.00;;;;;;;10.23;100.00;100852.16;1746451;82;21063;-60
2023/04/10 03:02:07;;;;;;;24.72;14.20;;;;;;;10.26;100.00;100854.52;1746560;82;21425;-58
2023/04/10 03:04:38;;;;;;;25.97;14.65;;;;;;;10.23;100.00;100852.16;1746709;82;21046;-58
2023/04/10 03:07:08;;;;;;;19.37;12.63;;;;;;;10.23;100.00;100849.42;1746866;82;21022;-58
2023/04/10 03:09:39;;;;;;;19.62;12.58;;;;;;;10.22;100.00;100846.34;1746676;82;21498;-58
2023/04/10 03:12:08;;;;;;;20.60;12.55;;;;;;;10.25;100.00;100849.23;1746558;82;21090;-57
2023/04/10 03:14:40;;;;;;;20.97;12.25;;;;;;;10.27;100.00;100845.27;1746574;82;21053;-58
2023/04/10 03:17:12;;;;;;;21.12;12.58;;;;;;;10.30;100.00;100851.75;1746439;82;21071;-58
2023/04/10 03:19:40;;;;;;;21.55;12.60;;;;;;;10.30;100.00;100855.01;1746491;82;21070;-58
2023/04/10 03:22:10;;;;;;;19.80;12.70;;;;;;;10.29;100.00;100854.16;1746820;82;21113;-58
2023/04/10 03:24:41;;;;;;;20.90;12.70;;;;;;;10.30;100.00;100846.80;1746614;82;21018;-59
2023/04/10 03:27:11;;;;;;;21.73;12.85;;;;;;;10.27;100.00;100855.38;1746653;82;21066;-58
2023/04/10 03:29:42;;;;;;;19.42;12.35;;;;;;;10.25;100.00;100850.60;1746661;82;21007;-59
2023/04/10 03:32:12;;;;;;;19.62;12.30;;;;;;;10.25;100.00;100852.83;1715300;82;21495;-58
2023/04/10 03:34:42;;;;;;;20.52;12.65;;;;;;;10.25;100.00;100851.45;1746573;81;21450;-60
2023/04/10 03:37:11;;;;;;;22.65;13.50;;;;;;;10.24;100.00;100848.38;1746261;82;21078;-58
2023/04/10 03:39:41;;;;;;;19.75;12.80;;;;;;;10.25;100.00;100855.56;1746919;82;21539;-58
2023/04/10 03:42:13;;;;;;;20.15;12.53;;;;;;;10.28;100.00;100855.71;1746771;82;21054;-59
2023/04/10 03:44:42;;;;;;;26.07;14.50;;;;;;;10.30;100.00;100861.86;1746390;82;21074;-60
2023/04/10 03:47:12;;;;;;;23.10;13.20;;;;;;;10.29;100.00;100861.00;1746869;82;21031;-59
2023/04/10 03:49:43;;;;;;;19.85;12.10;;;;;;;10.31;100.00;100860.81;1746869;82;21102;-58
2023/04/10 03:52:16;;;;;;;19.48;13.15;;;;;;;10.31;100.00;100860.30;1746512;81;21067;-58
2023/04/10 03:54:45;;;;;;;19.73;12.82;;;;;;;10.29;100.00;100865.11;1746823;82;21064;-59
2023/04/10 03:57:18;;;;;;;19.95;13.00;;;;;;;10.29;100.00;100869.22;1745124;82;21039;-59
2023/04/10 03:59:51;;;;;;;17.60;12.47;;;;;;;10.31;100.00;100870.41;1746787;82;21494;-58
2023/04/10 04:02:20;;;;;;;20.20;13.03;;;;;;;10.30;100.00;100866.81;1715422;82;21150;-57
2023/04/10 04:04:49;;;;;;;19.85;12.60;;;;;;;10.29;100.00;100869.73;1746558;82;21078;-59
2023/04/10 04:07:24;;;;;;;22.15;12.60;;;;;;;10.28;100.00;100870.78;1742214;81;21114;-59
2023/04/10 04:09:59;;;;;;;26.35;14.20;;;;;;;10.26;100.00;100875.59;1745119;82;21455;-59
2023/04/10 04:12:30;;;;;;;23.22;13.35;;;;;;;10.24;99.93;100882.62;1743838;82;21122;-58
2023/04/10 04:15:02;;;;;;;20.80;13.08;;;;;;;10.20;99.85;100877.17;1746457;82;21093;-59
2023/04/10 04:17:41;;;;;;;25.08;13.43;;;;;;;10.20;99.92;100880.39;1734179;82;21234;-58
2023/04/10 04:20:12;;;;;;;24.20;13.72;;;;;;;10.21;99.97;100872.55;1716509;82;21042;-58
2023/04/10 04:22:46;;;;;;;23.83;13.80;;;;;;;10.21;99.99;100878.88;1746631;82;21035;-57
2023/04/10 04:25:34;;;;;;;22.35;13.65;;;;;;;10.21;99.98;100880.25;1746720;82;21026;-58
2023/04/10 04:28:14;;;;;;;21.40;12.98;;;;;;;10.25;100.00;100887.06;1744714;82;21550;-58
2023/04/10 04:30:46;;;;;;;22.65;12.95;;;;;;;10.23;99.66;100882.28;1744478;82;21055;-59
2023/04/10 04:33:20;;;;;;;21.37;12.95;;;;;;;10.19;99.42;100880.91;1746349;82;21075;-58
2023/04/10 04:36:04;;;;;;;23.65;13.65;;;;;;;10.17;99.40;100883.84;1746717;82;21702;-62
2023/04/10 04:38:38;;;;;;;23.67;12.80;;;;;;;10.17;99.34;100890.69;1743274;82;21006;-59
2023/04/10 04:41:29;;;;;;;22.00;13.55;;;;;;;10.20;99.28;100892.23;1746845;82;21074;-58
2023/04/10 04:44:18;;;;;;;22.98;13.80;;;;;;;10.20;99.26;100888.13;1746900;82;21466;-59
2023/04/10 04:47:02;;;;;;;25.30;14.45;;;;;;;10.18;98.94;100890.16;1745277;82;22007;-58
2023/04/10 04:49:50;;;;;;;22.13;13.43;;;;;;;10.17;98.83;100897.53;1746596;82;21556;-56
2023/04/10 04:52:34;;;;;;;19.40;12.98;;;;;;;10.16;98.84;100894.45;1743016;82;21094;-59
2023/04/10 04:55:07;;;;;;;24.07;13.58;;;;;;;10.20;98.80;100900.45;1744984;82;21027;-58
2023/04/10 04:57:49;;;;;;;23.87;14.15;;;;;;;10.21;98.69;100899.93;1671023;82;21040;-58
2023/04/10 05:00:23;;;;;;;22.93;13.78;;;;;;;10.23;98.67;100902.82;1727393;82;21059;-58
2023/04/10 05:02:56;;;;;;;21.48;13.65;;;;;;;10.27;98.65;100906.05;1702393;82;21082;-59
2023/04/10 05:05:40;;;;;;;22.82;13.13;;;;;;;10.29;98.54;100902.61;1746179;82;21090;-58
2023/04/10 05:08:19;;;;;;;18.30;11.40;;;;;;;10.30;98.52;100905.16;1746858;82;21145;-59
2023/04/10 05:11:07;;;;;;;20.70;12.90;;;;;;;10.30;98.23;100901.57;1746351;82;21483;-58
2023/04/10 05:13:41;;;;;;;21.12;13.25;;;;;;;10.29;98.05;100906.20;1744060;82;21445;-59
2023/04/10 05:16:25;;;;;;;21.57;11.80;;;;;;;10.30;98.03;100910.64;1695819;82;21046;-58
2023/04/10 05:19:09;;;;;;;19.77;12.37;;;;;;;10.28;97.45;100912.71;1718299;82;21027;-59
2023/04/10 05:22:00;;;;;;;20.05;11.78;;;;;;;10.26;97.41;100918.03;1746561;82;21054;-58
2023/04/10 05:24:43;;;;;;;19.42;11.88;;;;;;;10.27;97.22;100919.74;1744696;82;21047;-60
2023/04/10 05:27:21;;;;;;;20.08;11.80;;;;;;;10.27;97.14;100921.96;1746065;82;21015;-60
2023/04/10 05:30:10;;;;;;;20.48;12.23;;;;;;;10.27;97.00;100917.86;1746379;82;21149;-58
2023/04/10 05:32:41;;;;;;;19.27;12.05;;;;;;;10.31;97.09;100920.56;1746258;82;21086;-59
2023/04/10 05:35:30;;;;;;;20.23;12.58;;;;;;;10.35;97.06;100920.53;1746920;82;21047;-59
2023/04/10 05:38:01;;;;;;;18.65;11.43;;;;;;;10.41;97.10;100921.19;1746169;82;21079;-58
2023/04/10 05:40:47;;;;;;;17.98;11.88;;;;;;;10.46;97.12;100924.75;1744366;82;21070;-57
2023/04/10 05:43:17;;;;;;;17.75;11.80;;;;;;;10.48;96.80;100916.68;1736926;82;21067;-59
2023/04/10 05:45:54;;;;;;;17.27;11.18;;;;;;;10.47;96.49;100924.56;1745697;81;21062;-58
2023/04/10 05:48:29;;;;;;;20.02;11.68;;;;;;;10.48;96.36;100930.89;1727446;82;21511;-57
2023/04/10 05:51:08;;;;;;;17.77;11.35;;;;;;;10.47;96.28;100928.67;1707662;82;21852;-58
2023/04/10 05:53:40;;;;;;;17.65;11.78;;;;;;;10.49;95.92;100925.75;1737204;81;21055;-59
2023/04/10 05:56:14;;;;;;;19.05;12.00;;;;;;;10.47;95.72;100932.78;1743840;82;21082;-58
2023/04/10 05:58:48;;;;;;;18.12;10.93;;;;;;;10.50;95.50;100940.30;1746045;82;21058;-58
2023/04/10 06:01:20;;;;;;;18.00;11.00;;;;;;;10.47;95.20;100931.42;1740667;82;21078;-60
2023/04/10 06:03:51;;;;;;;16.20;10.93;;;;;;;10.46;94.98;100935.19;1745754;82;21074;-60
2023/04/10 06:06:21;;;;;;;17.65;11.18;;;;;;;10.44;94.86;100933.67;1747321;82;21054;-60
2023/04/10 06:08:50;;;;;;;16.30;10.60;;;;;;;10.44;94.76;100937.78;1748356;82;21110;-59
2023/04/10 06:11:20;;;;;;;17.17;11.28;;;;;;;10.43;94.67;100943.78;1749752;82;21110;-61
2023/04/10 06:13:51;;;;;;;15.20;10.93;;;;;;;10.42;94.50;100939.86;1749144;82;21062;-60
2023/04/10 06:16:24;;;;;;;17.07;11.20;;;;;;;10.41;94.42;100938.15;1748177;82;21081;-60
2023/04/10 06:18:57;;;;;;;18.32;11.80;;;;;;;10.39;94.30;100943.78;1746747;82;21003;-60
2023/04/10 06:21:26;;;;;;;18.70;11.78;;;;;;;10.43;94.30;100942.92;1746604;82;21034;-58
2023/04/10 06:23:56;;;;;;;18.60;11.78;;;;;;;10.45;94.28;100948.56;1746496;82;21106;-59
2023/04/10 06:26:25;;;;;;;19.17;11.48;;;;;;;10.47;94.04;100949.22;1746925;82;21062;-57
2023/04/10 06:28:55;;;;;;;19.85;12.28;;;;;;;10.45;93.93;100948.56;1746634;82;21043;-59
2023/04/10 06:31:26;;;;;;;18.40;11.88;;;;;;;10.44;93.83;100952.33;1680438;85;21105;-59
2023/04/10 06:33:59;;;;;;;20.82;12.47;;;;;;;10.43;93.50;100943.78;1659004;85;21480;-59
2023/04/10 06:36:30;;;;;;;19.65;12.35;;;;;;;10.41;93.42;100951.33;1680186;85;21147;-58
2023/04/10 06:39:02;;;;;;;22.10;12.05;;;;;;;10.44;93.58;100946.00;1680203;85;22148;-60
2023/04/10 06:41:32;;;;;;;23.07;12.13;;;;;;;10.45;93.72;100944.45;1680554;85;21466;-59
2023/04/10 06:44:11;;;;;;;21.00;12.93;;;;;;;10.49;93.82;100944.93;1624825;87;21072;-60
2023/04/10 06:46:41;;;;;;;20.55;12.50;;;;;;;10.51;93.79;100951.08;1624717;88;21556;-60
2023/04/10 06:49:10;;;;;;;22.90;11.48;;;;;;;10.52;93.72;100948.67;1643084;85;21084;-60
2023/04/10 06:51:39;;;;;;;22.58;12.33;;;;;;;10.54;93.70;100951.23;1680721;85;21039;-61
2023/04/10 06:54:09;;;;;;;22.37;11.18;;;;;;;10.55;93.61;100946.08;1680331;84;21403;-62
2023/04/10 06:56:38;;;;;;;19.92;11.73;;;;;;;10.50;93.38;100949.89;1680604;85;21011;-58
2023/04/10 06:59:07;;;;;;;19.05;11.80;;;;;;;10.47;93.50;100949.22;1680544;84;21064;-58
2023/04/10 07:01:36;;;;;;;20.48;11.70;;;;;;;10.49;93.76;100958.63;1693045;82;21043;-61
2023/04/10 07:04:05;;;;;;;21.02;11.20;;;;;;;10.48;93.75;100960.52;1746697;81;21039;-62
2023/04/10 07:06:38;;;;;;;23.47;11.83;;;;;;;10.48;93.75;100957.78;1746667;82;21031;-61
2023/04/10 07:09:08;;;;;;;21.95;12.13;;;;;;;10.44;93.73;100961.92;1746973;82;21446;-60
2023/04/10 07:11:38;;;;;;;23.38;12.53;;;;;;;10.44;94.06;100962.44;1746574;82;21454;-59
2023/04/10 07:14:07;;;;;;;22.37;12.60;;;;;;;10.44;94.46;100960.55;1746843;81;21451;-62
2023/04/10 07:16:36;;;;;;;22.75;12.88;;;;;;;10.45;94.99;100966.36;1746370;82;21074;-62
2023/04/10 07:19:06;;;;;;;19.75;12.98;;;;;;;10.42;95.34;100965.36;1746742;81;21435;-61
2023/04/10 07:21:35;;;;;;;19.70;13.13;;;;;;;10.39;95.89;100971.17;1746885;81;21035;-60
2023/04/10 07:24:06;;;;;;;25.25;13.32;;;;;;;10.38;96.39;100970.84;1680333;85;21094;-61
2023/04/10 07:26:35;;;;;;;23.07;13.35;;;;;;;10.37;96.78;100966.91;1680277;85;21055;-61
2023/04/10 07:29:04;;;;;;;25.17;13.25;;;;;;;10.35;97.22;100960.25;1680695;85;21091;-61
2023/04/10 07:31:34;;;;;;;26.35;14.47;;;;;;;10.38;97.61;100972.73;1680346;85;21046;-60
2023/04/10 07:34:04;;;;;;;25.62;14.47;;;;;;;10.37;98.00;100965.55;1680274;85;21434;-60
2023/04/10 07:36:33;;;;;;;22.80;12.75;;;;;;;10.34;98.22;100969.50;1680526;85;21034;-59
2023/04/10 07:39:03;;;;;;;25.12;13.75;;;;;;;10.32;98.41;100970.20;1680276;85;21537;-60
2023/04/10 07:41:32;;;;;;;29.82;14.73;;;;;;;10.28;98.46;100972.97;1692761;82;21090;-59
2023/04/10 07:44:01;;;;;;;23.50;14.05;;;;;;;10.29;98.74;100973.82;1746630;82;21119;-61
2023/04/10 07:46:30;;;;;;;24.15;13.22;;;;;;;10.27;98.96;100974.52;1746816;81;21067;-62
2023/04/10 07:48:59;;;;;;;25.70;13.83;;;;;;;10.25;99.28;100980.69;1746636;81;21310;-62
2023/04/10 07:51:28;;;;;;;28.52;15.18;;;;;;;10.23;99.52;100986.87;1748344;81;21034;-61
2023/04/10 07:53:57;;;;;;;25.70;14.55;;;;;;;10.24;100.00;100990.80;1746821;82;21124;-60
2023/04/10 07:56:30;;;;;;;32.17;15.80;;;;;;;10.26;100.00;100982.40;1760160;81;21077;-61
2023/04/10 07:59:00;;;;;;;25.72;13.98;;;;;;;10.26;100.00;100981.03;1760321;81;21034;-61
2023/04/10 08:01:29;;;;;;;28.40;14.83;;;;;;;10.26;100.00;100983.25;1760181;81;21508;-64
2023/04/10 08:03:58;;;;;;;25.75;12.98;;;;;;;10.24;100.00;100989.43;1760368;80;21533;-62
2023/04/10 08:06:31;;;;;;;26.25;12.70;;;;;;;10.25;100.00;100982.06;1760395;81;21462;-63
2023/04/10 08:09:00;;;;;;;23.65;12.18;;;;;;;10.26;100.00;100983.25;1746810;82;21062;-63
2023/04/10 08:11:34;;;;;;;20.60;11.50;;;;;;;10.26;100.00;100983.77;1760393;81;21042;-61
2023/04/10 08:14:05;;;;;;;17.65;10.85;;;;;;;10.29;100.00;100984.25;1760525;81;21006;-59
2023/04/10 08:16:37;;;;;;;19.20;10.65;;;;;;;10.31;100.00;100981.34;1746997;82;21789;-59
2023/04/10 08:19:07;;;;;;;18.10;11.03;;;;;;;10.34;100.00;100977.72;1743445;80;21137;-60
2023/04/10 08:21:36;;;;;;;20.20;10.90;;;;;;;10.39;100.00;100994.46;1715588;82;21078;-60
2023/04/10 08:24:06;;;;;;;21.00;11.60;;;;;;;10.44;100.00;100985.20;1728416;83;21097;-58
2023/04/10 08:26:34;;;;;;;22.55;13.93;;;;;;;10.47;100.00;100988.95;1715502;83;21098;-59
2023/04/10 08:29:03;;;;;;;21.10;13.65;;;;;;;10.50;100.00;100988.25;1728396;83;21549;-58
2023/04/10 08:31:33;;;;;;;21.02;13.70;;;;;;;10.50;100.00;100990.99;1728819;83;21086;-59
2023/04/10 08:34:03;;;;;;;20.65;13.53;;;;;;;10.52;100.00;100988.41;1728649;81;21066;-60
2023/04/10 08:36:34;;;;;;;23.15;14.00;;;;;;;10.53;100.00;100984.62;1715478;83;21099;-58
2023/04/10 08:39:04;;;;;;;20.05;13.40;;;;;;;10.52;100.00;100994.40;1715502;82;21067;-61
2023/04/10 08:41:35;;;;;;;23.27;14.70;;;;;;;10.52;100.00;100982.07;1715448;83;21062;-59
2023/04/10 08:44:06;;;;;;;22.15;13.22;;;;;;;10.54;100.00;100984.96;1666274;85;21058;-59
2023/04/10 08:46:36;;;;;;;23.52;13.28;;;;;;;10.54;100.00;100984.11;1643688;86;21070;-60
2023/04/10 08:49:07;;;;;;;21.35;14.07;;;;;;;10.55;100.00;100983.08;1665493;85;21450;-59
2023/04/10 08:51:58;;;;;;;20.08;13.08;;;;;;;10.51;100.00;100979.84;1665271;84;21010;-59
2023/04/10 08:54:29;;;;;;;21.93;14.75;;;;;;;10.50;100.00;100988.25;1651300;87;21023;-59
2023/04/10 08:57:00;;;;;;;26.70;16.97;;;;;;;10.54;100.00;100990.96;1650997;87;21015;-62
2023/04/10 08:59:29;;;;;;;26.23;16.32;;;;;;;10.56;100.00;100987.52;1651550;86;21043;-57
2023/04/10 09:02:00;;;;;;;20.48;13.93;;;;;;;10.57;100.00;100983.22;1675871;84;21067;-65
2023/04/10 09:04:31;;;;;;;23.57;14.95;;;;;;;10.56;100.00;100987.00;1734822;82;21023;-64
2023/04/10 09:07:01;;;;;;;22.73;13.43;;;;;;;10.55;100.00;100984.45;1706027;82;21103;-61
2023/04/10 09:09:33;;;;;;;17.27;11.93;;;;;;;10.53;100.00;100989.25;1743381;81;21039;-59
2023/04/10 09:12:05;;;;;;;17.05;11.73;;;;;;;10.53;100.00;100990.11;1746358;82;21455;-63
2023/04/10 09:14:35;;;;;;;18.12;11.68;;;;;;;10.52;100.00;100991.66;1683737;82;21082;-61
2023/04/10 09:17:22;;;;;;;15.75;10.53;;;;;;;10.53;100.00;100988.73;1680267;84;20999;-61
2023/04/10 09:19:54;;;;;;;16.73;10.50;;;;;;;10.55;100.00;100985.30;1626143;88;21082;-63
2023/04/10 09:22:34;;;;;;;16.65;11.43;;;;;;;10.57;100.00;100982.37;1625932;87;21046;-59
2023/04/10 09:25:06;;;;;;;17.92;12.28;;;;;;;10.64;100.00;100994.30;1625719;88;21042;-61
2023/04/10 09:27:36;;;;;;;19.37;12.75;;;;;;;10.81;100.00;100995.88;1625851;87;21089;-59
2023/04/10 09:30:07;;;;;;;19.80;13.90;;;;;;;10.98;100.00;100991.09;1625621;87;21050;-61
2023/04/10 09:32:43;;;;;;;19.30;14.05;;;;;;;11.10;100.00;100986.89;1625457;88;21066;-61
2023/04/10 09:35:14;;;;;;;20.72;14.07;;;;;;;11.27;100.00;100984.83;1651079;85;20998;-62
2023/04/10 09:37:46;;;;;;;23.75;14.18;;;;;;;11.43;100.00;100990.13;1703351;82;21039;-65
2023/04/10 09:40:23;;;;;;;21.82;14.70;;;;;;;11.61;100.00;100989.23;1713286;83;21110;-59
2023/04/10 09:42:54;;;;;;;21.93;14.55;;;;;;;11.82;100.00;100979.42;1746603;82;21561;-62
2023/04/10 09:45:23;;;;;;;22.40;15.20;;;;;;;11.97;100.00;100987.97;1714029;82;21103;-62
2023/04/10 09:48:07;;;;;;;23.75;14.85;;;;;;;12.05;100.00;100984.25;1681136;84;21023;-59
2023/04/10 09:50:39;;;;;;;18.32;12.90;;;;;;;12.07;100.00;100984.91;1680112;85;21035;-59
2023/04/10 09:53:20;;;;;;;18.57;12.00;;;;;;;12.06;100.00;100975.82;1679834;84;21089;-60
2023/04/10 09:55:49;;;;;;;15.55;10.72;;;;;;;12.06;100.00;100984.58;1680163;84;21007;-63
2023/04/10 09:58:19;;;;;;;16.10;11.75;;;;;;;12.05;100.00;100974.64;1657841;85;21007;-61
2023/04/10 10:00:58;;;;;;;18.07;12.40;;;;;;;12.02;100.00;100974.50;1679901;84;21254;-60
2023/04/10 10:03:28;;;;;;;17.62;12.63;;;;;;;11.99;100.00;100974.04;1680037;85;21026;-61
2023/04/10 10:05:57;;;;;;;17.05;11.65;;;;;;;12.00;100.00;100976.59;1705322;82;21070;-61
2023/04/10 10:08:27;;;;;;;19.40;12.80;;;;;;;12.03;100.00;100974.84;1740452;82;21015;-61
2023/04/10 10:10:58;;;;;;;19.25;13.58;;;;;;;12.03;99.81;100976.20;1740458;82;21494;-65
2023/04/10 10:13:44;;;;;;;19.37;13.00;;;;;;;12.06;99.63;100973.59;1774759;80;21003;-60
2023/04/10 10:16:26;;;;;;;;;;;;;;;12.10;98.97;100978.18;1780469;80;21517;-62
2023/04/10 10:19:07;;;;;;;20.12;13.98;;;;;;;12.17;99.18;100973.09;1777707;81;20159;-60
2023/04/10 10:21:37;;;;;;;22.42;15.13;;;;;;;12.23;98.69;100968.72;1777617;80;21027;-62
2023/04/10 10:24:08;;;;;;;19.52;12.73;;;;;;;12.32;98.21;100978.53;1777630;80;20996;-60
2023/04/10 10:26:38;;;;;;;19.37;12.13;;;;;;;12.42;96.96;100978.25;1777674;80;20987;-61
2023/04/10 10:29:12;;;;;;;20.55;12.45;;;;;;;12.49;95.78;100970.91;1777723;81;20988;-60
2023/04/10 10:31:44;;;;;;;15.28;10.38;;;;;;;12.56;95.22;100967.70;1777659;81;21448;-62
2023/04/10 10:34:13;;;;;;;14.30;10.30;;;;;;;12.62;93.69;100965.55;1777620;80;21631;-60
2023/04/10 10:36:41;;;;;;;15.32;10.72;;;;;;;12.65;92.62;100967.90;1747611;81;21447;-60
2023/04/10 10:40:03;;;;;;;16.32;11.35;;;;;;;12.75;92.58;100966.19;1765684;81;21108;-61
2023/04/10 10:42:42;;;;;;;15.75;10.18;;;;;;;12.85;92.40;100966.17;1747199;82;21062;-61
2023/04/10 10:45:33;;;;;;;13.28;9.08;;;;;;;12.96;91.68;100968.38;1747051;80;21509;-59
2023/04/10 10:48:14;;;;;;;14.23;10.15;;;;;;;12.96;89.22;100971.66;1747121;82;21015;-60
2023/04/10 10:50:59;;;;;;;13.10;9.30;;;;;;;12.95;89.34;100962.55;1682968;84;21165;-60
2023/04/10 10:53:33;;;;;;;14.40;8.78;;;;;;;12.98;89.60;100958.55;1682819;84;21093;-60
2023/04/10 10:56:25;;;;;;;12.95;8.05;;;;;;;13.00;88.80;100961.95;1682956;85;21621;-59
2023/04/10 10:59:00;;;;;;;13.70;9.30;;;;;;;13.01;88.05;100960.41;1682642;83;21047;-58
2023/04/10 11:01:30;;;;;;;13.90;9.18;;;;;;;13.06;88.23;100961.71;1683038;84;21091;-60
2023/04/10 11:04:04;;;;;;;12.70;8.38;;;;;;;13.13;88.03;100962.08;1682746;83;21082;-58
2023/04/10 11:06:50;;;;;;;12.53;7.70;;;;;;;13.18;86.69;100954.63;1656290;85;21075;-59
2023/04/10 11:09:52;;;;;;;10.05;6.85;;;;;;;13.24;86.26;100962.08;1672995;84;21102;-58
2023/04/10 11:12:26;;;;;;;10.00;6.87;;;;;;;13.32;85.33;100963.30;1730586;79;21476;-60
2023/04/10 11:15:04;;;;;;;9.58;5.75;;;;;;;13.37;85.37;100959.41;1745316;81;21082;-59
2023/04/10 11:17:51;;;;;;;11.12;6.20;;;;;;;13.38;84.27;100966.63;1749030;81;21051;-58
2023/04/10 11:20:25;;;;;;;7.58;5.67;;;;;;;13.40;83.89;100959.02;1739996;82;21052;-61
2023/04/10 11:23:15;;;;;;;7.83;5.95;;;;;;;13.40;83.20;100959.02;1748218;81;21054;-59
2023/04/10 11:25:53;;;;;;;8.20;6.20;;;;;;;13.38;81.91;100956.98;1746238;82;21046;-58
2023/04/10 11:28:39;;;;;;;9.30;5.95;;;;;;;13.37;82.07;100955.28;1745961;82;21122;-59
2023/04/10 11:31:22;;;;;;;9.25;5.58;;;;;;;13.43;81.96;100957.23;1679601;85;21574;-59
2023/04/10 11:34:03;;;;;;;5.85;4.45;;;;;;;13.42;79.95;100950.55;1680229;85;21078;-58
2023/04/10 11:36:42;;;;;;;7.40;4.62;;;;;;;13.44;79.40;100956.70;1680043;85;21130;-59
2023/04/10 11:39:13;;;;;;;8.23;4.30;;;;;;;13.48;79.53;100956.09;1680213;85;21096;-58
2023/04/10 11:41:44;;;;;;;6.58;4.22;;;;;;;13.53;80.38;100949.45;1680212;85;21102;-59